createdAt,value
2023-05-06T00:00:33.982Z,12.07
2023-05-06T00:03:04.388Z,12.09
2023-05-06T00:05:35.010Z,12.11
2023-05-06T00:08:05.478Z,12.14
2023-05-06T00:10:35.902Z,12.18
2023-05-06T00:13:06.352Z,12.24
2023-05-06T00:15:36.533Z,12.28
2023-05-06T00:18:07.164Z,12.29
2023-05-06T00:20:37.326Z,12.28
2023-05-06T00:23:07.969Z,12.26
2023-05-06T00:25:38.093Z,12.20
2023-05-06T00:28:08.201Z,12.18
2023-05-06T00:30:38.382Z,12.12
2023-05-06T00:33:08.918Z,12.13
2023-05-06T00:35:39.082Z,12.09
2023-05-06T00:38:15.212Z,12.04
2023-05-06T00:40:46.059Z,11.98
2023-05-06T00:43:16.196Z,11.90
2023-05-06T00:45:46.636Z,11.92
2023-05-06T00:48:17.056Z,11.92
2023-05-06T00:50:47.729Z,11.93
2023-05-06T00:53:21.704Z,11.94
2023-05-06T00:55:52.159Z,11.93
2023-05-06T00:58:22.764Z,11.92
2023-05-06T01:00:53.624Z,11.89
2023-05-06T01:03:24.086Z,11.88
2023-05-06T01:05:59.573Z,11.85
2023-05-06T01:08:33.520Z,11.78
2023-05-06T01:11:08.400Z,11.73
2023-05-06T01:13:44.084Z,11.70
2023-05-06T01:16:15.745Z,11.67
2023-05-06T01:18:47.003Z,11.64
2023-05-06T01:21:17.782Z,11.60
2023-05-06T01:23:57.747Z,11.56
2023-05-06T01:26:28.268Z,11.47
2023-05-06T01:28:59.565Z,11.43
2023-05-06T01:31:43.219Z,11.37
2023-05-06T01:34:18.568Z,11.28
2023-05-06T01:36:57.963Z,11.27
2023-05-06T01:39:29.798Z,11.22
2023-05-06T01:42:01.964Z,11.16
2023-05-06T01:44:35.449Z,11.10
2023-05-06T01:47:07.764Z,11.04
2023-05-06T01:49:38.278Z,10.95
2023-05-06T01:52:08.474Z,10.89
2023-05-06T01:54:38.630Z,10.85
2023-05-06T01:57:08.863Z,10.79
2023-05-06T01:59:38.996Z,10.72
2023-05-06T02:02:09.243Z,10.62
2023-05-06T02:04:40.026Z,10.57
2023-05-06T02:07:10.288Z,10.50
2023-05-06T02:09:41.236Z,10.42
2023-05-06T02:12:11.419Z,10.40
2023-05-06T02:14:41.576Z,10.35
2023-05-06T02:17:11.762Z,10.32
2023-05-06T02:19:42.018Z,10.25
2023-05-06T02:22:12.214Z,10.25
2023-05-06T02:24:42.429Z,10.24
2023-05-06T02:27:12.825Z,10.23
2023-05-06T02:29:43.163Z,10.22
2023-05-06T02:32:13.350Z,10.23
2023-05-06T02:34:43.486Z,10.24
2023-05-06T02:37:13.892Z,10.21
2023-05-06T02:39:44.052Z,10.23
2023-05-06T02:42:15.802Z,10.21
2023-05-06T02:44:45.940Z,10.18
2023-05-06T02:47:16.186Z,10.16
2023-05-06T02:49:47.880Z,10.15
2023-05-06T02:52:18.288Z,10.15
2023-05-06T02:54:48.900Z,10.15
2023-05-06T02:57:19.062Z,10.14
2023-05-06T02:59:49.231Z,10.11
2023-05-06T03:02:21.728Z,10.07
2023-05-06T03:04:51.964Z,10.02
2023-05-06T03:07:22.246Z,9.98
2023-05-06T03:09:52.423Z,9.95
2023-05-06T03:12:22.613Z,9.94
2023-05-06T03:14:53.044Z,9.94
2023-05-06T03:17:23.192Z,9.93
2023-05-06T03:19:54.273Z,9.92
2023-05-06T03:22:24.601Z,9.91
2023-05-06T03:24:54.963Z,9.91
2023-05-06T03:27:25.469Z,9.91
2023-05-06T03:29:57.583Z,9.92
2023-05-06T03:32:27.936Z,9.95
2023-05-06T03:34:58.383Z,9.97
2023-05-06T03:37:30.429Z,9.97
2023-05-06T03:40:03.595Z,9.95
2023-05-06T03:42:34.485Z,9.93
2023-05-06T03:45:07.124Z,9.91
2023-05-06T03:47:38.188Z,9.86
2023-05-06T03:50:11.205Z,9.86
2023-05-06T03:52:42.386Z,9.85
2023-05-06T03:55:13.615Z,9.86
2023-05-06T03:57:44.169Z,9.88
2023-05-06T04:00:16.027Z,9.89
2023-05-06T04:02:50.096Z,9.89
2023-05-06T04:05:25.331Z,9.91
2023-05-06T04:07:55.733Z,9.94
2023-05-06T04:10:26.479Z,9.99
2023-05-06T04:12:58.070Z,10.08
2023-05-06T04:15:32.816Z,10.19
2023-05-06T04:18:03.633Z,10.26
2023-05-06T04:20:33.867Z,10.33
2023-05-06T04:23:04.282Z,10.42
2023-05-06T04:25:35.776Z,10.62
2023-05-06T04:28:06.623Z,10.82
2023-05-06T04:30:37.238Z,10.95
2023-05-06T04:33:08.875Z,11.14
2023-05-06T04:35:40.520Z,11.48
2023-05-06T04:38:11.716Z,11.95
2023-05-06T04:40:42.662Z,12.44
2023-05-06T04:43:13.322Z,12.96
2023-05-06T04:45:49.524Z,13.52
2023-05-06T04:48:24.025Z,14.15
2023-05-06T04:50:55.154Z,14.68
2023-05-06T04:53:26.752Z,15.26
2023-05-06T04:55:59.016Z,15.81
2023-05-06T04:58:29.746Z,16.35
2023-05-06T05:01:02.277Z,16.83
2023-05-06T05:03:32.612Z,17.24
2023-05-06T05:06:02.943Z,17.55
2023-05-06T05:08:33.323Z,17.87
2023-05-06T05:11:04.389Z,18.16
2023-05-06T05:13:35.165Z,18.36
2023-05-06T05:16:06.823Z,18.65
2023-05-06T05:18:37.134Z,18.80
2023-05-06T05:21:11.889Z,18.83
2023-05-06T05:23:42.293Z,18.82
2023-05-06T05:26:12.898Z,18.84
2023-05-06T05:28:44.227Z,18.91
2023-05-06T05:31:15.710Z,18.91
2023-05-06T05:33:46.443Z,19.12
2023-05-06T05:36:18.555Z,19.35
2023-05-06T05:38:50.876Z,19.51
2023-05-06T05:41:21.482Z,19.63
2023-05-06T05:43:51.676Z,19.72
2023-05-06T05:46:22.971Z,19.86
2023-05-06T05:48:53.462Z,20.04
2023-05-06T05:51:24.956Z,20.21
2023-05-06T05:53:55.789Z,20.33
2023-05-06T05:56:26.844Z,20.46
2023-05-06T05:58:57.040Z,20.60
2023-05-06T06:01:27.865Z,20.63
2023-05-06T06:03:59.918Z,20.65
2023-05-06T06:06:31.388Z,20.54
2023-05-06T06:09:01.917Z,20.40
2023-05-06T06:11:32.367Z,20.32
2023-05-06T06:14:02.566Z,20.29
2023-05-06T06:16:32.857Z,20.18
2023-05-06T06:19:03.431Z,20.06
2023-05-06T06:21:34.202Z,19.85
2023-05-06T06:24:05.907Z,19.71
2023-05-06T06:26:36.724Z,19.59
2023-05-06T06:29:07.167Z,19.39
2023-05-06T06:31:39.765Z,19.26
2023-05-06T06:34:12.554Z,19.28
2023-05-06T06:36:45.127Z,19.41
2023-05-06T06:39:15.636Z,19.50
2023-05-06T06:41:45.904Z,19.49
2023-05-06T06:44:16.146Z,19.42
2023-05-06T06:46:46.539Z,19.26
2023-05-06T06:49:18.057Z,19.23
2023-05-06T06:51:48.226Z,19.34
2023-05-06T06:54:18.511Z,19.60
2023-05-06T06:56:49.021Z,19.79
2023-05-06T06:59:19.232Z,19.82
2023-05-06T07:01:49.451Z,19.88
2023-05-06T07:04:19.710Z,19.92
2023-05-06T07:06:50.365Z,19.99
2023-05-06T07:09:23.078Z,19.83
2023-05-06T07:11:56.512Z,19.78
2023-05-06T07:14:28.110Z,19.88
2023-05-06T07:16:59.589Z,20.05
2023-05-06T07:19:33.156Z,20.00
2023-05-06T07:22:07.418Z,19.94
2023-05-06T07:24:39.116Z,19.98
2023-05-06T07:27:11.500Z,20.11
2023-05-06T07:29:43.144Z,20.17
2023-05-06T07:32:16.161Z,20.08
2023-05-06T07:34:48.147Z,19.99
2023-05-06T07:37:21.247Z,19.98
2023-05-06T07:39:54.966Z,20.03
2023-05-06T07:42:27.167Z,20.06
2023-05-06T07:44:57.449Z,20.18
2023-05-06T07:47:32.284Z,20.43
2023-05-06T07:50:05.207Z,20.69
2023-05-06T07:52:38.189Z,20.91
2023-05-06T07:55:12.413Z,21.13
2023-05-06T07:57:45.014Z,21.28
2023-05-06T08:00:18.251Z,21.33
2023-05-06T08:02:50.562Z,21.38
2023-05-06T08:05:21.204Z,21.38
2023-05-06T08:14:12.011Z,21.83
2023-05-06T08:16:42.352Z,22.16
2023-05-06T08:19:12.884Z,22.33
2023-05-06T08:21:43.084Z,22.51
2023-05-06T08:24:14.022Z,22.61
2023-05-06T08:26:44.245Z,22.69
2023-05-06T08:29:14.506Z,22.80
2023-05-06T08:31:45.346Z,22.91
2023-05-06T08:34:18.537Z,23.08
2023-05-06T08:36:48.954Z,23.19
2023-05-06T08:39:19.362Z,23.41
2023-05-06T08:41:52.405Z,23.51
2023-05-06T08:44:25.576Z,23.71
2023-05-06T08:46:55.734Z,24.04
2023-05-06T08:49:25.907Z,24.05
2023-05-06T08:51:56.751Z,23.81
2023-05-06T08:54:27.424Z,23.62
2023-05-06T08:56:59.481Z,23.44
2023-05-06T08:59:30.438Z,23.18
2023-05-06T09:02:02.738Z,22.94
2023-05-06T09:04:33.334Z,22.87
2023-05-06T09:07:07.232Z,22.95
2023-05-06T09:09:37.910Z,22.99
2023-05-06T09:12:13.407Z,23.01
2023-05-06T09:14:44.107Z,22.98
2023-05-06T09:17:26.387Z,22.98
2023-05-06T09:19:57.827Z,22.95
2023-05-06T09:22:29.714Z,23.10
2023-05-06T09:25:00.631Z,23.51
2023-05-06T09:27:32.389Z,24.06
2023-05-06T09:30:04.894Z,24.47
2023-05-06T09:32:39.094Z,24.96
2023-05-06T09:35:12.031Z,25.38
2023-05-06T09:37:41.012Z,25.87
2023-05-06T09:40:13.069Z,26.27
2023-05-06T09:42:46.028Z,26.65
2023-05-06T09:45:19.018Z,26.64
2023-05-06T09:47:50.061Z,26.56
2023-05-06T09:50:20.919Z,26.43
2023-05-06T09:52:51.791Z,26.15
2023-05-06T09:55:23.478Z,25.86
2023-05-06T09:57:53.901Z,25.50
2023-05-06T10:00:27.999Z,24.85
2023-05-06T10:02:59.414Z,24.19
2023-05-06T10:05:31.251Z,23.64
2023-05-06T10:08:01.910Z,23.20
2023-05-06T10:10:32.409Z,22.82
2023-05-06T10:13:04.832Z,22.25
2023-05-06T10:15:35.629Z,21.78
2023-05-06T10:18:06.802Z,21.36
2023-05-06T10:20:38.287Z,21.08
2023-05-06T10:23:14.448Z,20.82
2023-05-06T10:25:45.671Z,20.60
2023-05-06T10:28:29.868Z,20.43
2023-05-06T10:31:02.037Z,20.35
2023-05-06T10:33:32.253Z,20.49
2023-05-06T10:36:08.691Z,20.63
2023-05-06T10:38:43.319Z,20.82
2023-05-06T10:41:15.052Z,20.79
2023-05-06T10:43:47.345Z,20.65
2023-05-06T10:46:30.518Z,20.52
2023-05-06T10:49:18.245Z,20.34
2023-05-06T10:51:52.126Z,20.16
2023-05-06T10:54:28.213Z,19.97
2023-05-06T10:57:11.510Z,19.81
2023-05-06T11:00:21.353Z,19.68
2023-05-06T11:02:57.698Z,19.64
2023-05-06T11:09:23.012Z,19.77
2023-05-06T11:12:33.565Z,19.85
2023-05-06T11:15:51.563Z,19.95
2023-05-06T11:19:02.511Z,19.94
2023-05-06T11:21:40.589Z,19.93
2023-05-06T11:24:14.964Z,19.92
2023-05-06T11:26:45.827Z,19.86
2023-05-06T11:29:19.708Z,19.84
2023-05-06T11:31:54.743Z,19.82
2023-05-06T11:34:27.149Z,19.82
2023-05-06T11:37:03.141Z,19.77
2023-05-06T11:39:40.462Z,19.77
2023-05-06T11:42:11.713Z,19.77
2023-05-06T11:44:41.991Z,19.85
2023-05-06T11:47:12.166Z,19.95
2023-05-06T11:49:43.756Z,20.02
2023-05-06T11:52:14.684Z,20.10
2023-05-06T11:54:44.944Z,20.20
2023-05-06T11:57:15.677Z,20.42
2023-05-06T11:59:45.923Z,20.72
2023-05-06T12:02:21.334Z,21.66
2023-05-06T12:04:53.375Z,22.79
2023-05-06T12:07:24.004Z,23.32
2023-05-06T12:09:54.526Z,23.66
2023-05-06T12:12:25.773Z,24.64
2023-05-06T12:14:56.223Z,25.17
2023-05-06T12:17:26.663Z,25.90
2023-05-06T12:19:57.782Z,26.37
2023-05-06T12:22:28.116Z,26.21
2023-05-06T12:24:58.796Z,26.02
2023-05-06T12:27:34.172Z,26.05
2023-05-06T12:30:05.180Z,26.44
2023-05-06T12:32:35.738Z,26.32
2023-05-06T12:35:07.663Z,26.18
2023-05-06T12:37:37.971Z,26.13
2023-05-06T12:40:18.688Z,26.15
2023-05-06T12:42:56.241Z,27.04
2023-05-06T12:45:27.761Z,28.13
2023-05-06T12:47:59.272Z,28.20
2023-05-06T12:50:37.581Z,28.26
2023-05-06T12:53:11.697Z,27.91
2023-05-06T12:55:42.610Z,27.40
2023-05-06T12:58:19.266Z,26.85
2023-05-06T13:00:49.815Z,26.41
2023-05-06T13:03:20.165Z,26.03
2023-05-06T13:05:51.765Z,25.84
2023-05-06T13:08:22.075Z,25.96
2023-05-06T13:10:52.292Z,25.56
2023-05-06T13:13:23.566Z,25.29
2023-05-06T13:15:55.088Z,25.29
2023-05-06T13:18:25.815Z,25.72
2023-05-06T13:20:55.945Z,26.27
2023-05-06T13:23:26.099Z,26.02
2023-05-06T13:26:04.301Z,25.82
2023-05-06T13:28:36.799Z,26.02
2023-05-06T13:31:07.585Z,25.87
2023-05-06T13:33:37.871Z,27.04
2023-05-06T13:36:09.769Z,28.19
2023-05-06T13:38:41.299Z,29.02
2023-05-06T13:41:11.844Z,28.85
2023-05-06T13:43:42.120Z,29.45
2023-05-06T13:46:12.530Z,29.99
2023-05-06T13:48:42.901Z,29.75
2023-05-06T13:51:13.256Z,29.99
2023-05-06T13:53:44.212Z,30.74
2023-05-06T13:56:14.847Z,31.20
2023-05-06T13:58:45.299Z,31.47
2023-05-06T14:01:15.763Z,31.48
2023-05-06T14:03:46.363Z,31.64
2023-05-06T14:06:16.719Z,31.52
2023-05-06T14:08:46.955Z,30.57
2023-05-06T14:11:17.255Z,29.53
2023-05-06T14:13:47.444Z,28.80
2023-05-06T14:16:18.946Z,28.59
2023-05-06T14:18:49.205Z,29.12
2023-05-06T14:21:19.381Z,30.06
2023-05-06T14:23:49.655Z,30.82
2023-05-06T14:26:20.012Z,31.34
2023-05-06T14:28:50.703Z,31.04
2023-05-06T14:31:21.486Z,30.14
2023-05-06T14:33:51.758Z,29.09
2023-05-06T14:36:22.474Z,28.06
2023-05-06T14:38:53.811Z,27.06
2023-05-06T14:41:24.343Z,26.21
2023-05-06T14:43:54.549Z,25.49
2023-05-06T14:46:28.586Z,24.97
2023-05-06T14:49:00.693Z,24.57
2023-05-06T14:51:32.403Z,24.23
2023-05-06T14:54:04.828Z,23.93
2023-05-06T14:56:39.162Z,23.63
2023-05-06T14:59:11.966Z,23.46
2023-05-06T15:01:42.462Z,23.25
2023-05-06T15:04:13.727Z,23.06
2023-05-06T15:06:46.658Z,22.78
2023-05-06T15:09:16.771Z,22.56
2023-05-06T15:11:47.597Z,22.33
2023-05-06T15:14:17.869Z,22.12
2023-05-06T15:16:48.287Z,22.00
2023-05-06T15:19:19.542Z,21.88
2023-05-06T15:21:50.070Z,21.83
2023-05-06T15:24:21.768Z,21.75
2023-05-06T15:26:52.301Z,21.56
2023-05-06T15:29:23.090Z,21.40
2023-05-06T15:31:53.437Z,21.24
2023-05-06T15:34:24.837Z,21.08
2023-05-06T15:36:55.695Z,20.91
2023-05-06T15:39:26.232Z,20.75
2023-05-06T15:41:56.844Z,20.67
2023-05-06T15:44:28.195Z,20.63
2023-05-06T15:46:58.610Z,20.60
2023-05-06T15:52:02.887Z,20.66
2023-05-06T15:54:34.808Z,20.70
2023-05-06T15:57:07.512Z,20.74
2023-05-06T15:59:37.932Z,20.71
2023-05-06T16:04:41.661Z,20.56
2023-05-06T16:07:11.972Z,20.39
2023-05-06T16:09:42.678Z,20.28
2023-05-06T16:12:14.681Z,20.19
2023-05-06T16:14:45.141Z,20.14
2023-05-06T16:17:16.485Z,20.08
2023-05-06T16:19:46.967Z,19.99
2023-05-06T16:22:17.198Z,19.96
2023-05-06T16:24:48.056Z,19.92
2023-05-06T16:27:18.189Z,19.85
2023-05-06T16:29:48.416Z,19.78
2023-05-06T16:32:19.117Z,19.74
2023-05-06T16:34:49.721Z,19.71
2023-05-06T16:37:20.226Z,19.66
2023-05-06T16:39:51.101Z,19.57
2023-05-06T16:42:22.881Z,19.50
2023-05-06T16:44:53.463Z,19.41
2023-05-06T16:47:26.216Z,19.34
2023-05-06T16:49:58.717Z,19.26
2023-05-06T16:52:30.747Z,19.18
2023-05-06T16:55:01.553Z,19.11
2023-05-06T16:57:31.993Z,19.05
2023-05-06T17:00:03.259Z,18.99
2023-05-06T17:02:33.668Z,18.91
2023-05-06T17:05:03.988Z,18.87
2023-05-06T17:07:34.296Z,18.83
2023-05-06T17:10:05.035Z,18.77
2023-05-06T17:12:35.909Z,18.67
2023-05-06T17:15:08.999Z,18.63
2023-05-06T17:17:40.764Z,18.56
2023-05-06T17:20:15.812Z,18.47
2023-05-06T17:22:46.955Z,18.36
2023-05-06T17:25:18.816Z,18.31
2023-05-06T17:27:52.353Z,18.24
2023-05-06T17:30:23.554Z,18.17
2023-05-06T17:32:58.513Z,18.10
2023-05-06T17:35:29.098Z,18.03
2023-05-06T17:37:59.766Z,17.96
2023-05-06T17:40:29.962Z,17.90
2023-05-06T17:43:04.012Z,17.85
2023-05-06T17:45:34.942Z,17.81
2023-05-06T17:48:06.043Z,17.72
2023-05-06T17:50:39.883Z,17.71
2023-05-06T17:53:10.795Z,17.65
2023-05-06T17:55:41.457Z,17.61
2023-05-06T17:58:11.973Z,17.57
2023-05-06T18:00:44.136Z,17.49
2023-05-06T18:03:15.363Z,17.45
2023-05-06T18:05:48.311Z,17.40
2023-05-06T18:08:17.383Z,17.34
2023-05-06T18:10:51.485Z,17.28
2023-05-06T18:13:23.066Z,17.23
2023-05-06T18:15:53.435Z,17.16
2023-05-06T18:18:25.908Z,17.11
2023-05-06T18:20:56.359Z,17.03
2023-05-06T18:23:26.950Z,16.96
2023-05-06T18:25:57.311Z,16.91
2023-05-06T18:28:27.913Z,16.84
2023-05-06T18:30:58.564Z,16.79
2023-05-06T18:33:29.004Z,16.74
2023-05-06T18:36:00.501Z,16.69
2023-05-06T18:38:31.402Z,16.64
2023-05-06T18:41:04.092Z,16.60
2023-05-06T18:43:34.030Z,16.56
2023-05-06T18:46:06.405Z,16.51
2023-05-06T18:48:37.374Z,16.43
2023-05-06T18:51:17.597Z,16.42
2023-05-06T18:53:51.534Z,16.37
2023-05-06T18:56:26.754Z,16.32
2023-05-06T18:58:58.090Z,16.28
2023-05-06T19:01:31.065Z,16.23
2023-05-06T19:04:02.528Z,16.19
2023-05-06T19:06:34.546Z,16.11
2023-05-06T19:09:04.851Z,16.11
2023-05-06T19:11:36.616Z,16.07
2023-05-06T19:14:10.516Z,16.04
2023-05-06T19:16:41.861Z,16.01
2023-05-06T19:19:12.270Z,15.99
2023-05-06T19:21:44.688Z,15.96
2023-05-06T19:24:15.953Z,15.94
2023-05-06T19:26:48.713Z,15.88
2023-05-06T19:29:20.456Z,15.89
2023-05-06T19:31:51.254Z,15.87
2023-05-06T19:34:21.517Z,15.85
2023-05-06T19:36:52.345Z,15.86
2023-05-06T19:39:23.358Z,15.84
2023-05-06T19:41:55.659Z,15.83
2023-05-06T19:44:28.427Z,15.82
2023-05-06T19:46:57.877Z,15.80
2023-05-06T19:49:30.319Z,15.78
2023-05-06T19:52:01.750Z,15.75
2023-05-06T19:54:32.315Z,15.74
2023-05-06T19:57:02.930Z,15.71
2023-05-06T19:59:33.339Z,15.70
2023-05-06T20:02:04.476Z,15.68
2023-05-06T20:04:34.745Z,15.64
2023-05-06T20:07:04.995Z,15.66
2023-05-06T20:09:35.978Z,15.63
2023-05-06T20:12:07.657Z,15.60
2023-05-06T20:14:38.053Z,15.57
2023-05-06T20:17:11.388Z,15.53
2023-05-06T20:19:42.420Z,15.45
2023-05-06T20:22:14.160Z,15.45
2023-05-06T20:24:46.547Z,15.41
2023-05-06T20:27:16.805Z,15.37
2023-05-06T20:29:47.453Z,15.34
2023-05-06T20:32:20.429Z,15.30
2023-05-06T20:34:52.843Z,15.25
2023-05-06T20:37:24.191Z,15.22
2023-05-06T20:39:54.563Z,15.19
2023-05-06T20:42:30.437Z,15.16
2023-05-06T20:45:01.961Z,15.17
2023-05-06T20:47:32.688Z,15.18
2023-05-06T20:50:03.284Z,15.19
2023-05-06T20:52:34.341Z,15.18
2023-05-06T20:55:07.069Z,15.15
2023-05-06T20:57:39.303Z,15.11
2023-05-06T21:00:12.229Z,15.07
2023-05-06T21:02:43.368Z,15.04
2023-05-06T21:05:14.006Z,15.01
2023-05-06T21:07:44.740Z,14.97
2023-05-06T21:10:15.148Z,14.94
2023-05-06T21:12:53.232Z,14.89
2023-05-06T21:15:23.491Z,14.90
2023-05-06T21:17:53.921Z,14.89
2023-05-06T21:20:24.651Z,14.94
2023-05-06T21:22:55.186Z,14.93
2023-05-06T21:25:25.880Z,14.96
2023-05-06T21:27:59.409Z,14.96
2023-05-06T21:30:32.749Z,14.96
2023-05-06T21:33:03.561Z,14.94
2023-05-06T21:35:34.362Z,14.92
2023-05-06T21:38:04.865Z,14.89
2023-05-06T21:40:36.771Z,14.88
2023-05-06T21:43:07.537Z,14.85
2023-05-06T21:45:38.217Z,14.81
2023-05-06T21:54:24.797Z,14.76
2023-05-06T21:56:55.098Z,14.74
2023-05-06T21:59:25.751Z,14.72
2023-05-06T22:01:56.182Z,14.71
2023-05-06T22:04:29.041Z,14.69
2023-05-06T22:07:00.045Z,14.66
2023-05-06T22:09:34.070Z,14.64
2023-05-06T22:12:06.684Z,14.62
2023-05-06T22:14:41.021Z,14.59
2023-05-06T22:17:13.976Z,14.57
2023-05-06T22:19:44.252Z,14.54
2023-05-06T22:22:15.569Z,14.54
2023-05-06T22:24:48.094Z,14.55
2023-05-06T22:27:19.279Z,14.58
2023-05-06T22:29:49.806Z,14.59
2023-05-06T22:32:21.537Z,14.61
2023-05-06T22:34:52.140Z,14.62
2023-05-06T22:37:22.965Z,14.64
2023-05-06T22:39:54.015Z,14.66
2023-05-06T22:42:26.652Z,14.67
2023-05-06T22:44:56.043Z,14.69
2023-05-06T22:47:26.526Z,14.71
2023-05-06T22:49:59.860Z,14.73
2023-05-06T22:52:30.289Z,14.75
2023-05-06T22:55:00.792Z,14.75
2023-05-06T22:57:31.090Z,14.76
2023-05-06T23:00:01.288Z,14.76
2023-05-06T23:02:32.027Z,14.76
2023-05-06T23:05:02.842Z,14.76
2023-05-06T23:07:33.326Z,14.76
2023-05-06T23:10:04.226Z,14.78
2023-05-06T23:12:36.063Z,14.79
2023-05-06T23:15:08.025Z,14.81
2023-05-06T23:17:38.590Z,14.85
2023-05-06T23:20:17.288Z,14.88
2023-05-06T23:22:47.805Z,14.90
2023-05-06T23:25:18.269Z,14.92
2023-05-06T23:27:48.725Z,14.94
2023-05-06T23:30:19.235Z,14.95
2023-05-06T23:32:52.541Z,14.96
2023-05-06T23:35:23.173Z,14.98
2023-05-06T23:37:53.916Z,14.98
2023-05-06T23:40:24.962Z,14.98
2023-05-06T23:42:57.074Z,14.97
2023-05-06T23:45:28.475Z,14.93
2023-05-06T23:47:58.898Z,14.95
2023-05-06T23:50:30.882Z,14.93
2023-05-06T23:53:01.828Z,14.93
2023-05-06T23:55:33.022Z,14.92
2023-05-06T23:58:04.393Z,14.88
